Aslo, Minnesota
Current Conditions -  °F | °C
As of 6:14 AM on Sunday 25 Jan 2015 (Local Time) from KMZH Reporting Station
Overcast Overcast  
Wind Chill: 15°   Ceiling: 1800
Heat Index: 21°   Visibility: 10mi
Dew Point: 14°   Wind: 5mph
Humidity: 74%   Direction: 50°NE
Pressure: 29.94"   Gusts: NA
Location:  46.2004°N, 92.675°W
Report Text: KMZH 251214Z AUTO 05004KT 10SM OVC018 M06/M10 A2994 RMK AO2
Loading
Personal Weather Stations






























Interactive Weather Map New forecast layout! Learn more

10-Day Weather Forecast

Advertisements
Track Severe Weather on mobile